createdAt,value
2022-10-09T00:00:23.111Z,6.68
2022-10-09T00:02:49.750Z,6.81
2022-10-09T00:05:16.697Z,6.88
2022-10-09T00:07:43.161Z,6.89
2022-10-09T00:10:09.702Z,6.78
2022-10-09T00:12:36.144Z,6.82
2022-10-09T00:15:02.641Z,6.60
2022-10-09T00:17:29.061Z,6.90
2022-10-09T00:19:55.455Z,6.45
2022-10-09T00:22:21.914Z,6.21
2022-10-09T00:24:48.257Z,6.45
2022-10-09T00:27:14.651Z,6.60
2022-10-09T00:29:41.042Z,6.26
2022-10-09T00:32:07.446Z,6.31
2022-10-09T00:34:33.880Z,6.16
2022-10-09T00:37:00.451Z,6.25
2022-10-09T00:39:26.890Z,6.47
2022-10-09T00:41:53.266Z,6.16
2022-10-09T00:44:44.584Z,6.27
2022-10-09T00:47:23.517Z,6.42
2022-10-09T00:49:54.598Z,5.96
2022-10-09T00:52:25.757Z,6.29
2022-10-09T00:54:53.734Z,5.90
2022-10-09T00:57:20.483Z,6.21
2022-10-09T00:59:47.040Z,6.22
2022-10-09T01:02:13.472Z,6.15
2022-10-09T01:04:39.917Z,5.91
2022-10-09T01:07:22.399Z,6.24
2022-10-09T01:09:54.520Z,6.14
2022-10-09T01:12:49.183Z,6.09
2022-10-09T01:15:25.111Z,5.83
2022-10-09T01:17:56.032Z,6.04
2022-10-09T01:20:48.857Z,6.06
2022-10-09T01:23:33.729Z,6.16
2022-10-09T01:26:21.980Z,6.07
2022-10-09T01:28:55.594Z,5.78
2022-10-09T01:31:24.960Z,6.00
2022-10-09T01:33:51.495Z,5.55
2022-10-09T01:36:19.493Z,5.87
2022-10-09T01:38:46.942Z,5.80
2022-10-09T01:41:13.361Z,5.95
2022-10-09T01:43:41.417Z,5.97
2022-10-09T01:46:23.383Z,5.93
2022-10-09T01:49:01.884Z,5.81
2022-10-09T01:51:37.677Z,6.08
2022-10-09T01:54:08.094Z,5.79
2022-10-09T01:56:38.225Z,5.71
2022-10-09T01:59:15.503Z,5.70
2022-10-09T02:01:43.107Z,5.34
2022-10-09T02:04:13.197Z,5.66
2022-10-09T02:06:41.348Z,5.52
2022-10-09T02:09:11.966Z,5.89
2022-10-09T02:11:40.936Z,5.86
2022-10-09T02:14:07.645Z,5.86
2022-10-09T02:16:44.412Z,5.90
2022-10-09T02:19:19.779Z,5.75
2022-10-09T02:22:12.196Z,5.81
2022-10-09T02:24:40.234Z,5.49
2022-10-09T02:27:07.706Z,5.73
2022-10-09T02:29:34.315Z,5.43
2022-10-09T02:32:00.864Z,5.71
2022-10-09T02:34:27.285Z,5.74
2022-10-09T02:36:53.663Z,5.71
2022-10-09T02:39:20.139Z,5.83
2022-10-09T02:41:46.586Z,5.77
2022-10-09T02:44:12.949Z,5.70
2022-10-09T02:46:39.398Z,5.77
2022-10-09T02:49:06.733Z,5.56
2022-10-09T02:51:33.541Z,5.71
2022-10-09T02:53:59.927Z,5.44
2022-10-09T02:56:26.856Z,5.67
2022-10-09T02:58:53.246Z,5.66
2022-10-09T03:01:20.238Z,5.33
2022-10-09T03:03:46.749Z,5.59
2022-10-09T03:06:15.439Z,5.72
2022-10-09T03:08:45.054Z,5.18
2022-10-09T03:11:12.594Z,5.29
2022-10-09T03:13:38.953Z,5.72
2022-10-09T03:16:06.429Z,5.93
2022-10-09T03:18:33.272Z,5.87
2022-10-09T03:20:59.770Z,5.41
2022-10-09T03:23:26.293Z,5.46
2022-10-09T03:26:00.412Z,5.21
2022-10-09T03:28:27.665Z,5.21
2022-10-09T03:30:54.194Z,5.09
2022-10-09T03:33:21.487Z,5.19
2022-10-09T03:35:49.308Z,5.32
2022-10-09T03:38:16.278Z,5.38
2022-10-09T03:40:43.054Z,5.19
2022-10-09T03:43:09.783Z,5.41
2022-10-09T03:45:39.765Z,5.13
2022-10-09T03:48:06.766Z,5.17
2022-10-09T03:50:33.487Z,5.46
2022-10-09T03:53:00.037Z,5.41
2022-10-09T03:55:26.489Z,5.29
2022-10-09T03:57:52.848Z,5.17
2022-10-09T04:00:20.456Z,5.15
2022-10-09T04:02:47.365Z,5.06
2022-10-09T04:05:13.942Z,5.22
2022-10-09T04:07:40.317Z,5.03
2022-10-09T04:10:07.109Z,5.22
2022-10-09T04:12:33.548Z,5.43
2022-10-09T04:15:00.745Z,5.35
2022-10-09T04:17:27.135Z,5.12
2022-10-09T04:19:53.529Z,5.41
2022-10-09T04:22:19.907Z,4.97
2022-10-09T04:24:46.286Z,5.24
2022-10-09T04:27:12.669Z,5.24
2022-10-09T04:29:39.050Z,5.15
2022-10-09T04:32:05.993Z,5.28
2022-10-09T04:34:32.404Z,5.26
2022-10-09T04:36:58.788Z,4.92
2022-10-09T04:39:25.530Z,5.12
2022-10-09T04:41:51.915Z,4.81
2022-10-09T04:44:18.466Z,5.08
2022-10-09T04:46:44.893Z,5.13
2022-10-09T04:49:12.519Z,5.06
2022-10-09T04:51:38.977Z,5.02
2022-10-09T04:54:05.580Z,4.73
2022-10-09T04:56:32.132Z,4.95
2022-10-09T04:58:58.501Z,4.82
2022-10-09T05:01:27.785Z,4.61
2022-10-09T05:03:55.149Z,4.79
2022-10-09T05:06:23.087Z,4.82
2022-10-09T05:08:49.900Z,4.67
2022-10-09T05:11:18.808Z,4.88
2022-10-09T05:13:48.208Z,4.59
2022-10-09T05:16:17.095Z,4.88
2022-10-09T05:18:48.465Z,4.62
2022-10-09T05:21:15.762Z,4.88
2022-10-09T05:23:42.339Z,4.56
2022-10-09T05:26:12.881Z,4.96
2022-10-09T05:28:39.570Z,4.92
2022-10-09T05:31:07.917Z,4.93
2022-10-09T05:33:34.898Z,4.76
2022-10-09T05:36:03.563Z,4.79
2022-10-09T05:38:31.799Z,4.62
2022-10-09T05:41:01.086Z,4.93
2022-10-09T05:43:38.911Z,5.01
2022-10-09T05:46:09.084Z,4.82
2022-10-09T05:48:37.292Z,4.91
2022-10-09T05:51:11.584Z,4.88
2022-10-09T05:53:38.751Z,4.61
2022-10-09T05:56:17.139Z,4.91
2022-10-09T05:58:44.632Z,4.68
2022-10-09T06:01:11.232Z,4.42
2022-10-09T06:03:38.311Z,4.45
2022-10-09T06:06:06.878Z,4.76
2022-10-09T06:08:37.942Z,4.77
2022-10-09T06:11:16.025Z,4.42
2022-10-09T06:13:43.468Z,4.42
2022-10-09T06:16:12.183Z,4.53
2022-10-09T06:18:39.595Z,4.82
2022-10-09T06:21:06.410Z,4.89
2022-10-09T06:23:33.010Z,4.49
2022-10-09T06:26:01.938Z,4.91
2022-10-09T06:28:29.697Z,4.94
2022-10-09T06:31:04.454Z,4.68
2022-10-09T06:33:35.563Z,4.86
2022-10-09T06:36:10.087Z,4.95
2022-10-09T06:38:38.133Z,5.15
2022-10-09T06:41:06.651Z,5.31
2022-10-09T06:43:33.350Z,5.33
2022-10-09T06:46:09.168Z,5.31
2022-10-09T06:48:37.387Z,5.23
2022-10-09T06:51:09.080Z,5.42
2022-10-09T06:53:44.371Z,5.33
2022-10-09T06:56:11.716Z,5.38
2022-10-09T06:58:39.026Z,5.69
2022-10-09T07:01:13.752Z,5.75
2022-10-09T07:03:42.855Z,5.83
2022-10-09T07:06:15.649Z,5.59
2022-10-09T07:08:44.863Z,5.70
2022-10-09T07:11:25.294Z,6.11
2022-10-09T07:13:57.510Z,6.16
2022-10-09T07:16:33.134Z,5.92
2022-10-09T07:18:59.920Z,6.32
2022-10-09T07:21:26.369Z,6.13
2022-10-09T07:23:53.129Z,6.44
2022-10-09T07:26:25.064Z,6.32
2022-10-09T07:28:52.797Z,6.64
2022-10-09T07:31:19.511Z,6.39
2022-10-09T07:33:53.695Z,6.94
2022-10-09T07:36:20.534Z,6.95
2022-10-09T07:38:55.212Z,6.86
2022-10-09T07:41:23.537Z,7.40
2022-10-09T07:43:50.028Z,7.83
2022-10-09T07:46:19.110Z,8.75
2022-10-09T07:48:45.804Z,8.82
2022-10-09T07:51:14.141Z,8.21
2022-10-09T07:53:40.543Z,8.36
2022-10-09T07:56:07.639Z,8.66
2022-10-09T07:58:34.142Z,8.80
2022-10-09T08:01:08.354Z,8.79
2022-10-09T08:03:36.052Z,8.98
2022-10-09T08:06:03.421Z,8.95
2022-10-09T08:08:29.840Z,9.67
2022-10-09T08:10:56.346Z,10.33
2022-10-09T08:13:22.804Z,10.08
2022-10-09T08:15:49.244Z,9.57
2022-10-09T08:18:16.049Z,9.39
2022-10-09T08:20:42.434Z,9.94
2022-10-09T08:23:08.907Z,10.21
2022-10-09T08:25:36.952Z,10.89
2022-10-09T08:28:04.336Z,10.77
2022-10-09T08:30:31.104Z,10.74
2022-10-09T08:32:57.501Z,11.39
2022-10-09T08:35:23.923Z,11.35
2022-10-09T08:37:50.290Z,11.40
2022-10-09T08:40:29.017Z,11.03
2022-10-09T08:43:04.370Z,11.70
2022-10-09T08:45:33.468Z,12.01
2022-10-09T08:48:10.137Z,11.91
2022-10-09T08:50:41.602Z,11.15
2022-10-09T08:53:07.976Z,11.93
2022-10-09T08:55:41.656Z,12.81
2022-10-09T08:58:15.910Z,12.34
2022-10-09T09:00:49.692Z,12.72
2022-10-09T09:03:22.127Z,13.55
2022-10-09T09:05:51.172Z,14.25
2022-10-09T09:08:39.898Z,13.55
2022-10-09T09:11:25.070Z,14.54
2022-10-09T09:14:00.418Z,14.54
2022-10-09T09:16:46.335Z,14.54
2022-10-09T09:19:21.701Z,14.45
2022-10-09T09:21:49.411Z,14.18
2022-10-09T09:24:19.415Z,14.60
2022-10-09T09:26:50.742Z,15.27
2022-10-09T09:29:22.619Z,15.91
2022-10-09T09:31:55.068Z,15.80
2022-10-09T09:34:30.275Z,16.70
2022-10-09T09:36:59.494Z,16.92
2022-10-09T09:42:18.499Z,16.04
2022-10-09T09:44:51.040Z,15.23
2022-10-09T09:47:32.297Z,16.04
2022-10-09T09:50:01.519Z,15.53
2022-10-09T09:52:31.976Z,16.23
2022-10-09T09:54:59.015Z,16.14
2022-10-09T09:57:32.823Z,14.92
2022-10-09T10:00:10.753Z,15.68
2022-10-09T10:02:37.735Z,14.96
2022-10-09T10:05:18.494Z,15.31
2022-10-09T10:07:44.949Z,15.23
2022-10-09T10:10:25.089Z,14.77
2022-10-09T10:12:52.473Z,14.30
2022-10-09T10:15:26.459Z,13.93
2022-10-09T10:17:58.384Z,14.62
2022-10-09T10:20:25.689Z,14.80
2022-10-09T10:22:54.271Z,14.68
2022-10-09T10:25:25.126Z,14.21
2022-10-09T10:27:58.543Z,14.25
2022-10-09T10:30:24.958Z,14.66
2022-10-09T10:32:57.340Z,15.01
2022-10-09T10:35:31.391Z,15.38
2022-10-09T10:38:12.316Z,14.68
2022-10-09T10:40:55.373Z,14.49
2022-10-09T10:43:41.040Z,14.65
2022-10-09T10:46:22.762Z,14.63
2022-10-09T10:48:49.439Z,14.14
2022-10-09T10:51:52.812Z,14.11
2022-10-09T10:54:39.743Z,14.64
2022-10-09T10:57:10.765Z,14.42
2022-10-09T10:59:50.382Z,14.76
2022-10-09T11:02:51.249Z,15.01
2022-10-09T11:05:23.929Z,14.67
2022-10-09T11:08:00.032Z,14.61
2022-10-09T11:10:39.800Z,14.56
2022-10-09T11:13:19.267Z,14.73
2022-10-09T11:16:07.258Z,15.12
2022-10-09T11:18:55.457Z,15.15
2022-10-09T11:21:55.971Z,15.11
2022-10-09T11:24:52.511Z,15.12
2022-10-09T11:27:23.870Z,14.81
2022-10-09T11:29:58.826Z,14.78
2022-10-09T11:32:53.119Z,15.11
2022-10-09T11:35:25.140Z,15.06
2022-10-09T11:38:01.037Z,15.19
2022-10-09T11:40:33.578Z,14.97
2022-10-09T11:43:18.872Z,15.12
2022-10-09T11:46:01.213Z,15.13
2022-10-09T11:48:42.105Z,14.88
2022-10-09T11:51:37.686Z,15.34
2022-10-09T11:54:10.378Z,15.17
2022-10-09T11:56:36.745Z,15.05
2022-10-09T11:59:06.433Z,15.23
2022-10-09T12:01:41.335Z,15.13
2022-10-09T12:04:13.780Z,15.46
2022-10-09T12:06:57.286Z,15.51
2022-10-09T12:09:32.177Z,16.12
2022-10-09T12:12:07.933Z,17.06
2022-10-09T12:14:38.491Z,17.57
2022-10-09T12:17:23.345Z,17.29
2022-10-09T12:20:03.994Z,17.97
2022-10-09T12:22:30.357Z,17.45
2022-10-09T12:25:03.413Z,16.90
2022-10-09T12:27:38.079Z,16.91
2022-10-09T12:30:07.764Z,15.99
2022-10-09T12:32:42.105Z,15.86
2022-10-09T12:35:20.453Z,15.89
2022-10-09T12:37:46.873Z,16.17
2022-10-09T12:40:21.552Z,15.71
2022-10-09T12:42:49.391Z,15.90
2022-10-09T12:45:25.071Z,15.60
2022-10-09T12:47:53.044Z,15.90
2022-10-09T12:50:25.925Z,15.73
2022-10-09T12:52:53.893Z,16.00
2022-10-09T12:55:42.420Z,16.04
2022-10-09T12:58:31.342Z,15.69
2022-10-09T13:01:01.132Z,15.72
2022-10-09T13:03:33.747Z,15.99
2022-10-09T13:06:01.350Z,15.84
2022-10-09T13:08:38.758Z,15.75
2022-10-09T13:11:17.916Z,15.50
2022-10-09T13:13:49.339Z,16.10
2022-10-09T13:16:15.804Z,16.34
2022-10-09T13:18:42.501Z,16.01
2022-10-09T13:21:23.462Z,16.43
2022-10-09T13:23:50.308Z,16.38
2022-10-09T13:26:26.084Z,16.60
2022-10-09T13:28:53.167Z,16.77
2022-10-09T13:31:20.133Z,16.88
2022-10-09T13:33:48.024Z,17.27
2022-10-09T13:36:16.985Z,17.50
2022-10-09T13:38:44.264Z,17.98
2022-10-09T13:41:17.948Z,18.11
2022-10-09T13:43:44.509Z,18.09
2022-10-09T13:46:10.961Z,18.17
2022-10-09T13:48:37.459Z,18.17
2022-10-09T13:51:07.432Z,18.65
2022-10-09T13:53:34.366Z,17.96
2022-10-09T13:56:01.348Z,17.61
2022-10-09T13:58:28.032Z,17.46
2022-10-09T14:00:54.486Z,17.56
2022-10-09T14:03:21.745Z,16.44
2022-10-09T14:05:49.408Z,16.82
2022-10-09T14:08:15.827Z,16.68
2022-10-09T14:10:43.105Z,16.32
2022-10-09T14:13:10.647Z,16.68
2022-10-09T14:15:41.292Z,16.87
2022-10-09T14:18:08.415Z,16.46
2022-10-09T14:20:35.442Z,16.45
2022-10-09T14:23:01.874Z,16.08
2022-10-09T14:25:28.385Z,15.88
2022-10-09T14:27:54.968Z,16.22
2022-10-09T14:30:21.423Z,16.19
2022-10-09T14:32:48.776Z,15.93
2022-10-09T14:35:20.587Z,16.21
2022-10-09T14:37:47.860Z,16.37
2022-10-09T14:40:14.305Z,16.29
2022-10-09T14:42:40.795Z,16.31
2022-10-09T14:45:08.398Z,16.32
2022-10-09T14:47:34.870Z,16.01
2022-10-09T14:50:01.315Z,16.26
2022-10-09T14:52:27.721Z,16.07
2022-10-09T14:54:54.138Z,16.07
2022-10-09T14:57:20.553Z,16.14
2022-10-09T14:59:46.929Z,16.24
2022-10-09T15:02:15.749Z,15.83
2022-10-09T15:04:42.265Z,15.86
2022-10-09T15:07:09.101Z,16.12
2022-10-09T15:09:35.519Z,16.08
2022-10-09T15:12:01.871Z,16.06
2022-10-09T15:14:28.299Z,16.09
2022-10-09T15:16:54.686Z,16.11
2022-10-09T15:19:21.118Z,16.15
2022-10-09T15:21:47.565Z,16.15
2022-10-09T15:24:13.996Z,16.13
2022-10-09T15:26:40.709Z,15.83
2022-10-09T15:29:08.196Z,15.79
2022-10-09T15:31:40.378Z,16.13
2022-10-09T15:34:08.569Z,15.81
2022-10-09T15:36:38.298Z,15.99
2022-10-09T15:39:05.322Z,15.90
2022-10-09T15:41:34.644Z,16.47
2022-10-09T15:44:03.501Z,16.55
2022-10-09T15:46:30.538Z,16.67
2022-10-09T15:48:57.042Z,16.65
2022-10-09T15:51:24.560Z,16.16
2022-10-09T15:53:51.836Z,15.95
2022-10-09T15:56:23.609Z,15.95
2022-10-09T15:58:51.234Z,15.85
2022-10-09T16:01:18.861Z,15.50
2022-10-09T16:03:45.564Z,15.93
2022-10-09T16:06:15.940Z,15.90
2022-10-09T16:08:43.123Z,15.61
2022-10-09T16:11:12.665Z,15.37
2022-10-09T16:13:41.347Z,15.11
2022-10-09T16:16:15.016Z,15.29
2022-10-09T16:18:41.445Z,15.15
2022-10-09T16:21:13.643Z,14.79
2022-10-09T16:23:41.158Z,15.05
2022-10-09T16:26:07.688Z,14.80
2022-10-09T16:28:34.596Z,15.05
2022-10-09T16:31:01.544Z,14.86
2022-10-09T16:33:28.195Z,14.90
2022-10-09T16:35:54.605Z,14.78
2022-10-09T16:38:21.025Z,14.55
2022-10-09T16:41:04.544Z,14.66
2022-10-09T16:43:33.223Z,14.60
2022-10-09T16:46:29.893Z,14.39
2022-10-09T16:48:57.794Z,14.38
2022-10-09T16:51:26.767Z,14.35
2022-10-09T16:53:54.596Z,14.16
2022-10-09T16:56:24.015Z,14.19
2022-10-09T16:58:54.524Z,14.08
2022-10-09T17:01:21.253Z,13.97
2022-10-09T17:03:47.746Z,13.84
2022-10-09T17:06:17.986Z,13.72
2022-10-09T17:08:44.364Z,13.54
2022-10-09T17:11:13.572Z,13.60
2022-10-09T17:13:40.363Z,13.24
2022-10-09T17:16:08.279Z,13.36
2022-10-09T17:18:35.451Z,13.38
2022-10-09T17:21:07.917Z,12.96
2022-10-09T17:23:34.742Z,12.93
2022-10-09T17:26:19.667Z,12.98
2022-10-09T17:28:47.228Z,13.02
2022-10-09T17:31:16.801Z,12.88
2022-10-09T17:33:44.473Z,12.97
2022-10-09T17:36:19.078Z,12.79
2022-10-09T17:38:46.091Z,12.87
2022-10-09T17:41:14.093Z,12.84
2022-10-09T17:43:40.596Z,12.72
2022-10-09T17:46:07.766Z,12.69
2022-10-09T17:48:34.941Z,12.79
2022-10-09T17:51:03.018Z,12.68
2022-10-09T17:53:29.638Z,12.62
2022-10-09T17:55:57.806Z,12.34
2022-10-09T17:58:24.634Z,12.22
2022-10-09T18:00:51.182Z,12.30
2022-10-09T18:03:18.379Z,12.02
2022-10-09T18:05:48.498Z,12.24
2022-10-09T18:08:16.645Z,12.06
2022-10-09T18:10:43.614Z,12.19
2022-10-09T18:13:11.022Z,11.94
2022-10-09T18:15:38.969Z,11.54
2022-10-09T18:18:05.700Z,11.19
2022-10-09T18:20:35.411Z,11.60
2022-10-09T18:23:01.922Z,11.47
2022-10-09T18:25:28.328Z,11.39
2022-10-09T18:27:54.794Z,11.55
2022-10-09T18:30:21.257Z,11.54
2022-10-09T18:32:48.585Z,11.48
2022-10-09T18:35:15.522Z,11.43
2022-10-09T18:37:42.012Z,11.48
2022-10-09T18:40:08.823Z,11.39
2022-10-09T18:42:35.747Z,11.12
2022-10-09T18:45:03.171Z,10.96
2022-10-09T18:47:33.822Z,11.12
2022-10-09T18:50:05.744Z,11.32
2022-10-09T18:52:32.178Z,11.52
2022-10-09T18:54:59.005Z,11.36
2022-10-09T18:57:26.607Z,11.14
2022-10-09T18:59:54.975Z,11.36
2022-10-09T19:02:21.348Z,10.89
2022-10-09T19:04:48.007Z,11.05
2022-10-09T19:07:14.439Z,10.91
2022-10-09T19:09:40.823Z,11.30
2022-10-09T19:12:07.244Z,11.35
2022-10-09T19:14:35.503Z,11.35
2022-10-09T19:17:02.238Z,11.35
2022-10-09T19:19:28.624Z,11.16
2022-10-09T19:21:55.025Z,11.04
2022-10-09T19:24:21.409Z,10.86
2022-10-09T19:26:47.784Z,11.12
2022-10-09T19:29:14.175Z,10.80
2022-10-09T19:31:40.602Z,10.82
2022-10-09T19:34:07.602Z,11.12
2022-10-09T19:36:34.815Z,10.73
2022-10-09T19:39:01.759Z,10.70
2022-10-09T19:41:28.302Z,10.71
2022-10-09T19:43:54.682Z,10.90
2022-10-09T19:46:21.564Z,10.72
2022-10-09T19:48:49.624Z,10.78
2022-10-09T19:51:19.807Z,10.75
2022-10-09T19:53:47.126Z,10.75
2022-10-09T19:56:16.284Z,10.51
2022-10-09T19:58:44.959Z,10.47
2022-10-09T20:01:12.682Z,10.48
2022-10-09T20:03:40.178Z,10.56
2022-10-09T20:06:07.926Z,10.39
2022-10-09T20:08:38.615Z,10.14
2022-10-09T20:11:05.892Z,10.37
2022-10-09T20:13:33.885Z,10.15
2022-10-09T20:16:01.562Z,10.38
2022-10-09T20:18:28.673Z,10.22
2022-10-09T20:20:55.077Z,10.24
2022-10-09T20:23:21.570Z,10.17
2022-10-09T20:25:48.064Z,10.11
2022-10-09T20:28:15.308Z,10.03
2022-10-09T20:30:42.680Z,10.09
2022-10-09T20:33:09.517Z,9.77
2022-10-09T20:35:42.958Z,9.74
2022-10-09T20:38:09.390Z,10.07
2022-10-09T20:40:35.827Z,9.73
2022-10-09T20:43:02.191Z,9.95
2022-10-09T20:45:28.553Z,9.93
2022-10-09T20:47:54.964Z,9.46
2022-10-09T20:50:21.346Z,9.50
2022-10-09T20:52:48.013Z,9.48
2022-10-09T20:55:14.765Z,9.79
2022-10-09T20:57:41.135Z,9.78
2022-10-09T21:00:08.057Z,9.78
2022-10-09T21:02:34.547Z,9.63
2022-10-09T21:05:01.019Z,9.63
2022-10-09T21:07:27.437Z,9.47
2022-10-09T21:09:53.836Z,9.32
2022-10-09T21:12:20.217Z,9.55
2022-10-09T21:14:46.652Z,9.50
2022-10-09T21:17:13.108Z,9.58
2022-10-09T21:19:39.518Z,9.50
2022-10-09T21:22:05.930Z,9.30
2022-10-09T21:24:32.321Z,9.20
2022-10-09T21:26:58.748Z,9.43
2022-10-09T21:29:25.129Z,9.51
2022-10-09T21:31:51.563Z,9.38
2022-10-09T21:34:17.967Z,9.09
2022-10-09T21:37:08.799Z,9.21
2022-10-09T21:39:33.388Z,9.34
2022-10-09T21:41:59.844Z,9.25
2022-10-09T21:44:26.263Z,9.24
2022-10-09T21:46:52.669Z,8.89
2022-10-09T21:49:24.554Z,9.14
2022-10-09T21:51:51.106Z,8.84
2022-10-09T21:54:17.727Z,9.00
2022-10-09T21:56:44.144Z,9.15
2022-10-09T21:59:10.627Z,8.93
2022-10-09T22:01:37.064Z,9.14
2022-10-09T22:04:03.705Z,8.83
2022-10-09T22:06:30.163Z,8.93
2022-10-09T22:08:56.606Z,9.07
2022-10-09T22:11:22.992Z,8.82
2022-10-09T22:13:49.417Z,9.07
2022-10-09T22:16:15.851Z,9.00
2022-10-09T22:18:42.581Z,9.02
2022-10-09T22:21:11.919Z,8.94
2022-10-09T22:23:38.845Z,8.48
2022-10-09T22:26:08.305Z,8.50
2022-10-09T22:28:35.160Z,8.69
2022-10-09T22:31:07.488Z,8.77
2022-10-09T22:33:35.792Z,8.46
2022-10-09T22:36:08.184Z,8.60
2022-10-09T22:38:35.055Z,8.49
2022-10-09T22:41:09.636Z,8.75
2022-10-09T22:43:37.303Z,8.69
2022-10-09T22:46:14.932Z,8.73
2022-10-09T22:48:42.182Z,8.39
2022-10-09T22:51:10.782Z,8.72
2022-10-09T22:53:38.472Z,8.72
2022-10-09T22:56:12.284Z,8.48
2022-10-09T22:58:38.965Z,8.62
2022-10-09T23:01:17.771Z,8.73
2022-10-09T23:03:44.442Z,8.45
2022-10-09T23:06:13.803Z,8.35
2022-10-09T23:08:42.702Z,8.38
2022-10-09T23:11:10.081Z,8.63
2022-10-09T23:13:37.210Z,8.68
2022-10-09T23:16:05.892Z,8.72
2022-10-09T23:18:33.198Z,8.67
2022-10-09T23:21:03.604Z,8.40
2022-10-09T23:23:30.084Z,8.66
2022-10-09T23:25:56.558Z,8.55
2022-10-09T23:28:23.129Z,8.73
2022-10-09T23:30:49.511Z,8.68
2022-10-09T23:33:15.872Z,8.57
2022-10-09T23:35:44.022Z,8.63
2022-10-09T23:38:10.385Z,8.63
2022-10-09T23:40:36.762Z,8.40
2022-10-09T23:43:03.177Z,8.25
2022-10-09T23:45:29.538Z,8.37
2022-10-09T23:47:55.925Z,8.15
2022-10-09T23:50:22.319Z,8.31
2022-10-09T23:52:49.001Z,8.23
2022-10-09T23:55:15.677Z,8.50
2022-10-09T23:57:42.038Z,8.08
